sensor_id;sensor_type;location;lat;lon;timestamp;P1;durP1;ratioP1;P2;durP2;ratioP2
57822;SDS011;43650;48.064;20.624;2022-09-09T00:00:20;6.27;;;3.33;;
57822;SDS011;43650;48.064;20.624;2022-09-09T00:02:27;8.52;;;3.55;;
57822;SDS011;43650;48.064;20.624;2022-09-09T00:03:35;4.93;;;3.20;;
57822;SDS011;43650;48.064;20.624;2022-09-09T00:04:40;10.85;;;3.78;;
57822;SDS011;43650;48.064;20.624;2022-09-09T00:05:45;5.62;;;3.10;;
57822;SDS011;43650;48.064;20.624;2022-09-09T00:08:24;7.68;;;3.72;;
57822;SDS011;43650;48.064;20.624;2022-09-09T00:09:29;7.75;;;3.08;;
57822;SDS011;43650;48.064;20.624;2022-09-09T00:10:37;6.25;;;3.08;;
57822;SDS011;43650;48.064;20.624;2022-09-09T00:11:40;10.63;;;3.67;;
57822;SDS011;43650;48.064;20.624;2022-09-09T00:12:51;5.20;;;3.58;;
57822;SDS011;43650;48.064;20.624;2022-09-09T00:15:55;5.82;;;3.30;;
57822;SDS011;43650;48.064;20.624;2022-09-09T00:17:36;9.43;;;3.80;;
57822;SDS011;43650;48.064;20.624;2022-09-09T00:20:14;6.45;;;2.90;;
57822;SDS011;43650;48.064;20.624;2022-09-09T00:21:19;4.60;;;3.03;;
57822;SDS011;43650;48.064;20.624;2022-09-09T00:22:23;5.95;;;3.03;;
57822;SDS011;43650;48.064;20.624;2022-09-09T00:23:29;6.95;;;3.42;;
57822;SDS011;43650;48.064;20.624;2022-09-09T00:25:59;5.95;;;3.80;;
57822;SDS011;43650;48.064;20.624;2022-09-09T00:27:29;6.65;;;3.45;;
57822;SDS011;43650;48.064;20.624;2022-09-09T00:28:55;7.62;;;3.60;;
57822;SDS011;43650;48.064;20.624;2022-09-09T00:30:17;5.43;;;2.72;;
57822;SDS011;43650;48.064;20.624;2022-09-09T00:31:26;4.68;;;2.90;;
57822;SDS011;43650;48.064;20.624;2022-09-09T00:32:30;5.15;;;2.90;;
57822;SDS011;43650;48.064;20.624;2022-09-09T00:33:30;5.62;;;3.40;;
57822;SDS011;43650;48.064;20.624;2022-09-09T00:34:31;10.30;;;2.97;;
57822;SDS011;43650;48.064;20.624;2022-09-09T00:35:54;6.50;;;3.33;;
57822;SDS011;43650;48.064;20.624;2022-09-09T00:36:55;4.18;;;3.37;;
57822;SDS011;43650;48.064;20.624;2022-09-09T00:37:57;6.05;;;3.20;;
57822;SDS011;43650;48.064;20.624;2022-09-09T00:39:01;9.20;;;3.25;;
57822;SDS011;43650;48.064;20.624;2022-09-09T00:40:02;4.87;;;3.42;;
57822;SDS011;43650;48.064;20.624;2022-09-09T00:42:26;4.68;;;3.28;;
57822;SDS011;43650;48.064;20.624;2022-09-09T00:43:37;11.02;;;3.72;;
57822;SDS011;43650;48.064;20.624;2022-09-09T00:44:51;6.68;;;3.22;;
57822;SDS011;43650;48.064;20.624;2022-09-09T00:46:32;8.75;;;3.40;;
57822;SDS011;43650;48.064;20.624;2022-09-09T00:48:46;5.90;;;3.28;;
57822;SDS011;43650;48.064;20.624;2022-09-09T00:50:55;6.57;;;4.30;;
57822;SDS011;43650;48.064;20.624;2022-09-09T00:54:41;8.50;;;4.60;;
57822;SDS011;43650;48.064;20.624;2022-09-09T00:58:19;52.30;;;8.05;;
57822;SDS011;43650;48.064;20.624;2022-09-09T00:59:25;32.30;;;7.53;;
57822;SDS011;43650;48.064;20.624;2022-09-09T01:00:33;20.58;;;6.47;;
57822;SDS011;43650;48.064;20.624;2022-09-09T01:01:37;183.48;;;17.75;;
57822;SDS011;43650;48.064;20.624;2022-09-09T01:02:43;124.93;;;15.40;;
57822;SDS011;43650;48.064;20.624;2022-09-09T01:04:04;146.93;;;14.52;;
57822;SDS011;43650;48.064;20.624;2022-09-09T01:05:12;26.27;;;6.50;;
57822;SDS011;43650;48.064;20.624;2022-09-09T01:06:29;92.55;;;13.10;;
57822;SDS011;43650;48.064;20.624;2022-09-09T01:07:31;175.73;;;15.20;;
57822;SDS011;43650;48.064;20.624;2022-09-09T01:09:16;201.52;;;16.05;;
57822;SDS011;43650;48.064;20.624;2022-09-09T01:10:09;230.43;;;15.68;;
57822;SDS011;43650;48.064;20.624;2022-09-09T01:12:59;72.43;;;10.48;;
57822;SDS011;43650;48.064;20.624;2022-09-09T01:15:35;309.87;;;20.58;;
57822;SDS011;43650;48.064;20.624;2022-09-09T01:16:36;249.93;;;16.33;;
57822;SDS011;43650;48.064;20.624;2022-09-09T01:18:51;231.75;;;17.40;;
57822;SDS011;43650;48.064;20.624;2022-09-09T01:21:40;149.18;;;10.88;;
57822;SDS011;43650;48.064;20.624;2022-09-09T01:27:14;174.62;;;14.82;;
57822;SDS011;43650;48.064;20.624;2022-09-09T01:28:16;177.68;;;15.55;;
57822;SDS011;43650;48.064;20.624;2022-09-09T01:29:21;19.70;;;5.10;;
57822;SDS011;43650;48.064;20.624;2022-09-09T01:31:27;11.80;;;4.22;;
57822;SDS011;43650;48.064;20.624;2022-09-09T01:32:44;110.63;;;9.13;;
57822;SDS011;43650;48.064;20.624;2022-09-09T01:33:46;209.32;;;16.25;;
57822;SDS011;43650;48.064;20.624;2022-09-09T01:34:46;170.57;;;10.93;;
57822;SDS011;43650;48.064;20.624;2022-09-09T01:35:50;5.63;;;4.37;;
57822;SDS011;43650;48.064;20.624;2022-09-09T01:37:06;166.35;;;13.50;;
57822;SDS011;43650;48.064;20.624;2022-09-09T01:38:07;67.12;;;7.15;;
57822;SDS011;43650;48.064;20.624;2022-09-09T01:39:08;81.50;;;8.50;;
57822;SDS011;43650;48.064;20.624;2022-09-09T01:40:08;72.47;;;10.07;;
57822;SDS011;43650;48.064;20.624;2022-09-09T01:41:09;34.45;;;7.37;;
57822;SDS011;43650;48.064;20.624;2022-09-09T01:42:10;39.83;;;10.03;;
57822;SDS011;43650;48.064;20.624;2022-09-09T01:43:12;19.02;;;5.68;;
57822;SDS011;43650;48.064;20.624;2022-09-09T01:44:14;88.47;;;9.95;;
57822;SDS011;43650;48.064;20.624;2022-09-09T01:45:14;31.17;;;6.22;;
57822;SDS011;43650;48.064;20.624;2022-09-09T01:46:15;17.45;;;6.87;;
57822;SDS011;43650;48.064;20.624;2022-09-09T01:47:16;11.50;;;6.03;;
57822;SDS011;43650;48.064;20.624;2022-09-09T01:48:19;11.10;;;6.62;;
57822;SDS011;43650;48.064;20.624;2022-09-09T01:49:20;49.53;;;7.87;;
57822;SDS011;43650;48.064;20.624;2022-09-09T01:50:21;74.43;;;9.65;;
57822;SDS011;43650;48.064;20.624;2022-09-09T01:51:21;66.43;;;7.53;;
57822;SDS011;43650;48.064;20.624;2022-09-09T01:52:22;55.12;;;8.25;;
57822;SDS011;43650;48.064;20.624;2022-09-09T01:53:22;32.27;;;6.50;;
57822;SDS011;43650;48.064;20.624;2022-09-09T01:54:24;13.35;;;6.00;;
57822;SDS011;43650;48.064;20.624;2022-09-09T01:55:30;12.93;;;6.28;;
57822;SDS011;43650;48.064;20.624;2022-09-09T01:56:47;35.50;;;8.18;;
57822;SDS011;43650;48.064;20.624;2022-09-09T01:59:13;9.73;;;5.80;;
57822;SDS011;43650;48.064;20.624;2022-09-09T02:00:21;6.75;;;5.72;;
57822;SDS011;43650;48.064;20.624;2022-09-09T02:03:31;16.80;;;6.15;;
57822;SDS011;43650;48.064;20.624;2022-09-09T02:04:41;16.92;;;5.82;;
57822;SDS011;43650;48.064;20.624;2022-09-09T02:05:49;30.20;;;6.20;;
57822;SDS011;43650;48.064;20.624;2022-09-09T02:06:53;10.48;;;5.85;;
57822;SDS011;43650;48.064;20.624;2022-09-09T02:07:59;53.15;;;6.72;;
57822;SDS011;43650;48.064;20.624;2022-09-09T02:09:07;14.73;;;5.95;;
57822;SDS011;43650;48.064;20.624;2022-09-09T02:10:20;11.88;;;6.00;;
57822;SDS011;43650;48.064;20.624;2022-09-09T02:11:24;13.57;;;5.93;;
57822;SDS011;43650;48.064;20.624;2022-09-09T02:12:26;10.00;;;5.37;;
57822;SDS011;43650;48.064;20.624;2022-09-09T02:13:28;23.02;;;6.00;;
57822;SDS011;43650;48.064;20.624;2022-09-09T02:14:30;11.40;;;5.72;;
57822;SDS011;43650;48.064;20.624;2022-09-09T02:16:40;11.77;;;5.72;;
57822;SDS011;43650;48.064;20.624;2022-09-09T02:17:52;28.12;;;6.50;;
57822;SDS011;43650;48.064;20.624;2022-09-09T02:19:00;10.15;;;5.40;;
57822;SDS011;43650;48.064;20.624;2022-09-09T02:20:25;21.95;;;5.65;;
57822;SDS011;43650;48.064;20.624;2022-09-09T02:21:28;9.02;;;5.43;;
57822;SDS011;43650;48.064;20.624;2022-09-09T02:22:29;15.55;;;5.72;;
57822;SDS011;43650;48.064;20.624;2022-09-09T02:23:31;11.10;;;6.07;;
57822;SDS011;43650;48.064;20.624;2022-09-09T02:24:35;12.32;;;6.57;;
57822;SDS011;43650;48.064;20.624;2022-09-09T02:25:37;12.98;;;5.30;;
57822;SDS011;43650;48.064;20.624;2022-09-09T02:26:41;12.45;;;4.95;;
57822;SDS011;43650;48.064;20.624;2022-09-09T02:27:43;12.13;;;5.43;;
57822;SDS011;43650;48.064;20.624;2022-09-09T02:28:45;14.38;;;5.90;;
57822;SDS011;43650;48.064;20.624;2022-09-09T02:29:46;8.77;;;6.20;;
57822;SDS011;43650;48.064;20.624;2022-09-09T02:30:47;8.73;;;5.57;;
57822;SDS011;43650;48.064;20.624;2022-09-09T02:31:51;8.05;;;5.05;;
57822;SDS011;43650;48.064;20.624;2022-09-09T02:32:54;8.52;;;4.97;;
57822;SDS011;43650;48.064;20.624;2022-09-09T02:34:00;9.63;;;5.43;;
57822;SDS011;43650;48.064;20.624;2022-09-09T02:35:12;9.30;;;5.12;;
57822;SDS011;43650;48.064;20.624;2022-09-09T02:36:14;6.93;;;4.87;;
57822;SDS011;43650;48.064;20.624;2022-09-09T02:38:18;9.38;;;4.40;;
57822;SDS011;43650;48.064;20.624;2022-09-09T02:39:19;7.72;;;5.40;;
57822;SDS011;43650;48.064;20.624;2022-09-09T02:40:20;6.67;;;4.67;;
57822;SDS011;43650;48.064;20.624;2022-09-09T02:41:25;8.32;;;5.00;;
57822;SDS011;43650;48.064;20.624;2022-09-09T02:42:28;7.12;;;4.47;;
57822;SDS011;43650;48.064;20.624;2022-09-09T02:43:32;9.10;;;5.70;;
57822;SDS011;43650;48.064;20.624;2022-09-09T02:44:33;6.95;;;5.00;;
57822;SDS011;43650;48.064;20.624;2022-09-09T02:46:22;10.95;;;5.25;;
57822;SDS011;43650;48.064;20.624;2022-09-09T02:51:00;11.30;;;4.77;;
57822;SDS011;43650;48.064;20.624;2022-09-09T02:55:41;7.95;;;4.60;;
57822;SDS011;43650;48.064;20.624;2022-09-09T02:56:49;5.95;;;4.93;;
57822;SDS011;43650;48.064;20.624;2022-09-09T02:57:54;6.32;;;4.40;;
57822;SDS011;43650;48.064;20.624;2022-09-09T02:58:56;10.40;;;5.37;;
57822;SDS011;43650;48.064;20.624;2022-09-09T02:59:57;9.20;;;5.32;;
57822;SDS011;43650;48.064;20.624;2022-09-09T03:00:58;8.00;;;4.87;;
57822;SDS011;43650;48.064;20.624;2022-09-09T03:02:01;7.37;;;5.07;;
57822;SDS011;43650;48.064;20.624;2022-09-09T03:03:03;9.30;;;5.30;;
57822;SDS011;43650;48.064;20.624;2022-09-09T03:04:03;6.53;;;5.35;;
57822;SDS011;43650;48.064;20.624;2022-09-09T03:05:05;9.05;;;5.22;;
57822;SDS011;43650;48.064;20.624;2022-09-09T03:06:06;8.85;;;5.30;;
57822;SDS011;43650;48.064;20.624;2022-09-09T03:07:07;8.30;;;5.73;;
57822;SDS011;43650;48.064;20.624;2022-09-09T03:08:07;7.43;;;5.37;;
57822;SDS011;43650;48.064;20.624;2022-09-09T03:09:09;8.27;;;5.80;;
57822;SDS011;43650;48.064;20.624;2022-09-09T03:10:10;8.50;;;5.93;;
57822;SDS011;43650;48.064;20.624;2022-09-09T03:11:10;6.77;;;4.53;;
57822;SDS011;43650;48.064;20.624;2022-09-09T03:12:11;8.53;;;5.57;;
57822;SDS011;43650;48.064;20.624;2022-09-09T03:13:11;6.85;;;5.12;;
57822;SDS011;43650;48.064;20.624;2022-09-09T03:14:13;9.05;;;5.60;;
57822;SDS011;43650;48.064;20.624;2022-09-09T03:15:13;8.40;;;5.63;;
57822;SDS011;43650;48.064;20.624;2022-09-09T03:16:14;8.35;;;5.68;;
57822;SDS011;43650;48.064;20.624;2022-09-09T03:17:15;8.60;;;6.03;;
57822;SDS011;43650;48.064;20.624;2022-09-09T03:18:15;8.77;;;5.27;;
57822;SDS011;43650;48.064;20.624;2022-09-09T03:19:16;7.77;;;5.07;;
57822;SDS011;43650;48.064;20.624;2022-09-09T03:20:17;8.55;;;6.03;;
57822;SDS011;43650;48.064;20.624;2022-09-09T03:21:17;9.83;;;5.40;;
57822;SDS011;43650;48.064;20.624;2022-09-09T03:22:18;7.22;;;5.12;;
57822;SDS011;43650;48.064;20.624;2022-09-09T03:23:18;10.27;;;6.17;;
57822;SDS011;43650;48.064;20.624;2022-09-09T03:24:19;6.77;;;5.20;;
57822;SDS011;43650;48.064;20.624;2022-09-09T03:25:19;7.50;;;4.93;;
57822;SDS011;43650;48.064;20.624;2022-09-09T03:26:20;8.13;;;5.43;;
57822;SDS011;43650;48.064;20.624;2022-09-09T03:27:20;13.00;;;6.67;;
57822;SDS011;43650;48.064;20.624;2022-09-09T03:28:21;8.87;;;6.30;;
57822;SDS011;43650;48.064;20.624;2022-09-09T03:29:21;10.38;;;5.55;;
57822;SDS011;43650;48.064;20.624;2022-09-09T03:30:22;7.40;;;5.37;;
57822;SDS011;43650;48.064;20.624;2022-09-09T03:32:24;8.30;;;5.22;;
57822;SDS011;43650;48.064;20.624;2022-09-09T03:33:26;8.13;;;5.57;;
57822;SDS011;43650;48.064;20.624;2022-09-09T03:34:26;9.43;;;5.53;;
57822;SDS011;43650;48.064;20.624;2022-09-09T03:35:27;8.17;;;4.70;;
57822;SDS011;43650;48.064;20.624;2022-09-09T03:36:27;7.83;;;5.00;;
57822;SDS011;43650;48.064;20.624;2022-09-09T03:37:28;7.85;;;5.15;;
57822;SDS011;43650;48.064;20.624;2022-09-09T03:38:28;6.90;;;4.60;;
57822;SDS011;43650;48.064;20.624;2022-09-09T03:39:29;7.95;;;5.28;;
57822;SDS011;43650;48.064;20.624;2022-09-09T03:40:29;10.87;;;5.23;;
57822;SDS011;43650;48.064;20.624;2022-09-09T03:41:31;7.87;;;6.15;;
57822;SDS011;43650;48.064;20.624;2022-09-09T03:42:31;11.13;;;6.63;;
57822;SDS011;43650;48.064;20.624;2022-09-09T03:43:32;10.13;;;5.00;;
57822;SDS011;43650;48.064;20.624;2022-09-09T03:44:32;7.62;;;5.32;;
57822;SDS011;43650;48.064;20.624;2022-09-09T03:45:33;7.90;;;5.60;;
57822;SDS011;43650;48.064;20.624;2022-09-09T03:46:33;7.55;;;5.00;;
57822;SDS011;43650;48.064;20.624;2022-09-09T03:47:34;9.33;;;5.30;;
57822;SDS011;43650;48.064;20.624;2022-09-09T03:48:35;9.50;;;5.43;;
57822;SDS011;43650;48.064;20.624;2022-09-09T03:49:35;10.10;;;5.90;;
57822;SDS011;43650;48.064;20.624;2022-09-09T03:50:36;10.03;;;6.10;;
57822;SDS011;43650;48.064;20.624;2022-09-09T03:51:36;10.60;;;6.90;;
57822;SDS011;43650;48.064;20.624;2022-09-09T03:52:38;9.70;;;6.12;;
57822;SDS011;43650;48.064;20.624;2022-09-09T03:53:40;10.32;;;6.50;;
57822;SDS011;43650;48.064;20.624;2022-09-09T03:54:41;11.85;;;6.22;;
57822;SDS011;43650;48.064;20.624;2022-09-09T03:55:45;11.45;;;6.85;;
57822;SDS011;43650;48.064;20.624;2022-09-09T03:56:46;8.50;;;6.07;;
57822;SDS011;43650;48.064;20.624;2022-09-09T03:57:47;7.47;;;5.67;;
57822;SDS011;43650;48.064;20.624;2022-09-09T03:58:47;8.87;;;6.20;;
57822;SDS011;43650;48.064;20.624;2022-09-09T03:59:47;11.73;;;7.00;;
57822;SDS011;43650;48.064;20.624;2022-09-09T04:00:55;9.83;;;5.43;;
57822;SDS011;43650;48.064;20.624;2022-09-09T04:01:57;15.20;;;5.70;;
57822;SDS011;43650;48.064;20.624;2022-09-09T04:02:59;9.13;;;5.95;;
57822;SDS011;43650;48.064;20.624;2022-09-09T04:03:59;9.20;;;4.90;;
57822;SDS011;43650;48.064;20.624;2022-09-09T04:05:00;8.10;;;6.18;;
57822;SDS011;43650;48.064;20.624;2022-09-09T04:06:02;9.45;;;5.82;;
57822;SDS011;43650;48.064;20.624;2022-09-09T04:07:03;9.95;;;5.57;;
57822;SDS011;43650;48.064;20.624;2022-09-09T04:08:06;8.18;;;4.85;;
57822;SDS011;43650;48.064;20.624;2022-09-09T04:09:08;8.35;;;4.80;;
57822;SDS011;43650;48.064;20.624;2022-09-09T04:10:08;7.33;;;5.23;;
57822;SDS011;43650;48.064;20.624;2022-09-09T04:11:10;9.85;;;5.30;;
57822;SDS011;43650;48.064;20.624;2022-09-09T04:12:11;7.97;;;4.63;;
57822;SDS011;43650;48.064;20.624;2022-09-09T04:13:13;7.68;;;5.40;;
57822;SDS011;43650;48.064;20.624;2022-09-09T04:14:15;9.90;;;5.62;;
57822;SDS011;43650;48.064;20.624;2022-09-09T04:15:15;7.32;;;5.05;;
57822;SDS011;43650;48.064;20.624;2022-09-09T04:16:18;9.18;;;5.57;;
57822;SDS011;43650;48.064;20.624;2022-09-09T04:17:18;9.77;;;5.70;;
57822;SDS011;43650;48.064;20.624;2022-09-09T04:18:19;7.60;;;4.65;;
57822;SDS011;43650;48.064;20.624;2022-09-09T04:19:20;7.70;;;5.25;;
57822;SDS011;43650;48.064;20.624;2022-09-09T04:20:21;11.10;;;4.90;;
57822;SDS011;43650;48.064;20.624;2022-09-09T04:21:22;6.65;;;4.75;;
57822;SDS011;43650;48.064;20.624;2022-09-09T04:22:23;10.95;;;5.18;;
57822;SDS011;43650;48.064;20.624;2022-09-09T04:23:24;6.97;;;4.93;;
57822;SDS011;43650;48.064;20.624;2022-09-09T04:24:25;8.02;;;5.25;;
57822;SDS011;43650;48.064;20.624;2022-09-09T04:25:27;9.88;;;5.12;;
57822;SDS011;43650;48.064;20.624;2022-09-09T04:26:28;8.68;;;5.72;;
57822;SDS011;43650;48.064;20.624;2022-09-09T04:27:28;10.07;;;5.03;;
57822;SDS011;43650;48.064;20.624;2022-09-09T04:28:29;7.70;;;4.47;;
57822;SDS011;43650;48.064;20.624;2022-09-09T04:29:31;8.43;;;4.97;;
57822;SDS011;43650;48.064;20.624;2022-09-09T04:30:31;8.13;;;4.40;;
57822;SDS011;43650;48.064;20.624;2022-09-09T04:31:32;10.03;;;4.40;;
57822;SDS011;43650;48.064;20.624;2022-09-09T04:32:33;7.43;;;5.27;;
57822;SDS011;43650;48.064;20.624;2022-09-09T04:33:34;7.50;;;4.57;;
57822;SDS011;43650;48.064;20.624;2022-09-09T04:34:34;8.38;;;5.68;;
57822;SDS011;43650;48.064;20.624;2022-09-09T04:35:35;7.80;;;4.97;;
57822;SDS011;43650;48.064;20.624;2022-09-09T04:36:37;7.65;;;4.80;;
57822;SDS011;43650;48.064;20.624;2022-09-09T04:37:40;7.15;;;5.10;;
57822;SDS011;43650;48.064;20.624;2022-09-09T04:38:40;7.05;;;4.95;;
57822;SDS011;43650;48.064;20.624;2022-09-09T04:39:41;7.97;;;5.63;;
57822;SDS011;43650;48.064;20.624;2022-09-09T04:40:42;14.93;;;6.03;;
57822;SDS011;43650;48.064;20.624;2022-09-09T04:41:43;7.78;;;5.10;;
57822;SDS011;43650;48.064;20.624;2022-09-09T04:42:43;7.70;;;5.93;;
57822;SDS011;43650;48.064;20.624;2022-09-09T04:43:44;10.02;;;5.35;;
57822;SDS011;43650;48.064;20.624;2022-09-09T04:44:45;7.90;;;4.78;;
57822;SDS011;43650;48.064;20.624;2022-09-09T04:45:49;7.50;;;4.40;;
57822;SDS011;43650;48.064;20.624;2022-09-09T04:46:51;6.80;;;4.57;;
57822;SDS011;43650;48.064;20.624;2022-09-09T04:47:52;7.20;;;4.72;;
57822;SDS011;43650;48.064;20.624;2022-09-09T04:48:53;6.53;;;4.55;;
57822;SDS011;43650;48.064;20.624;2022-09-09T04:49:54;6.72;;;4.62;;
57822;SDS011;43650;48.064;20.624;2022-09-09T04:50:58;9.57;;;4.87;;
57822;SDS011;43650;48.064;20.624;2022-09-09T04:52:05;9.88;;;5.68;;
57822;SDS011;43650;48.064;20.624;2022-09-09T04:53:06;7.17;;;4.70;;
57822;SDS011;43650;48.064;20.624;2022-09-09T04:54:07;8.65;;;5.05;;
57822;SDS011;43650;48.064;20.624;2022-09-09T04:55:08;7.87;;;4.60;;
57822;SDS011;43650;48.064;20.624;2022-09-09T04:57:11;9.68;;;4.78;;
57822;SDS011;43650;48.064;20.624;2022-09-09T04:58:11;6.87;;;5.53;;
57822;SDS011;43650;48.064;20.624;2022-09-09T04:59:12;7.07;;;4.80;;
57822;SDS011;43650;48.064;20.624;2022-09-09T05:00:12;6.43;;;4.70;;
57822;SDS011;43650;48.064;20.624;2022-09-09T05:01:14;7.12;;;4.47;;
57822;SDS011;43650;48.064;20.624;2022-09-09T05:02:19;7.60;;;5.87;;
57822;SDS011;43650;48.064;20.624;2022-09-09T05:03:20;10.23;;;5.27;;
57822;SDS011;43650;48.064;20.624;2022-09-09T05:04:20;8.20;;;4.87;;
57822;SDS011;43650;48.064;20.624;2022-09-09T05:05:21;7.65;;;4.68;;
57822;SDS011;43650;48.064;20.624;2022-09-09T05:06:22;8.07;;;5.55;;
57822;SDS011;43650;48.064;20.624;2022-09-09T05:07:23;6.53;;;5.03;;
57822;SDS011;43650;48.064;20.624;2022-09-09T05:08:23;8.38;;;4.87;;
57822;SDS011;43650;48.064;20.624;2022-09-09T05:09:24;7.93;;;4.73;;
57822;SDS011;43650;48.064;20.624;2022-09-09T05:10:24;10.40;;;5.00;;
57822;SDS011;43650;48.064;20.624;2022-09-09T05:12:27;6.87;;;4.47;;
57822;SDS011;43650;48.064;20.624;2022-09-09T05:13:28;8.35;;;4.50;;
57822;SDS011;43650;48.064;20.624;2022-09-09T05:14:28;7.32;;;4.95;;
57822;SDS011;43650;48.064;20.624;2022-09-09T05:15:30;9.82;;;5.10;;
57822;SDS011;43650;48.064;20.624;2022-09-09T05:16:30;12.70;;;6.07;;
57822;SDS011;43650;48.064;20.624;2022-09-09T05:17:31;9.18;;;5.00;;
57822;SDS011;43650;48.064;20.624;2022-09-09T05:18:32;8.10;;;5.55;;
57822;SDS011;43650;48.064;20.624;2022-09-09T05:19:32;10.33;;;6.40;;
57822;SDS011;43650;48.064;20.624;2022-09-09T05:20:33;9.70;;;5.20;;
57822;SDS011;43650;48.064;20.624;2022-09-09T05:21:33;9.63;;;6.10;;
57822;SDS011;43650;48.064;20.624;2022-09-09T05:22:34;8.07;;;5.50;;
57822;SDS011;43650;48.064;20.624;2022-09-09T05:23:35;8.95;;;6.12;;
57822;SDS011;43650;48.064;20.624;2022-09-09T05:24:35;9.18;;;5.47;;
57822;SDS011;43650;48.064;20.624;2022-09-09T05:25:36;11.95;;;6.68;;
57822;SDS011;43650;48.064;20.624;2022-09-09T05:26:37;15.30;;;7.12;;
57822;SDS011;43650;48.064;20.624;2022-09-09T05:27:38;10.60;;;7.10;;
57822;SDS011;43650;48.064;20.624;2022-09-09T05:28:39;15.43;;;6.90;;
57822;SDS011;43650;48.064;20.624;2022-09-09T05:29:39;10.97;;;6.87;;
57822;SDS011;43650;48.064;20.624;2022-09-09T05:30:41;8.85;;;6.37;;
57822;SDS011;43650;48.064;20.624;2022-09-09T05:31:42;11.47;;;6.97;;
57822;SDS011;43650;48.064;20.624;2022-09-09T05:32:42;11.03;;;7.10;;
57822;SDS011;43650;48.064;20.624;2022-09-09T05:33:44;11.48;;;7.00;;
57822;SDS011;43650;48.064;20.624;2022-09-09T05:34:45;11.40;;;6.70;;
57822;SDS011;43650;48.064;20.624;2022-09-09T05:35:46;11.25;;;6.65;;
57822;SDS011;43650;48.064;20.624;2022-09-09T05:36:47;11.60;;;6.87;;
57822;SDS011;43650;48.064;20.624;2022-09-09T05:37:47;12.60;;;8.27;;
57822;SDS011;43650;48.064;20.624;2022-09-09T05:38:48;9.88;;;6.85;;
57822;SDS011;43650;48.064;20.624;2022-09-09T05:39:49;14.10;;;7.68;;
57822;SDS011;43650;48.064;20.624;2022-09-09T05:40:50;10.13;;;6.93;;
57822;SDS011;43650;48.064;20.624;2022-09-09T05:41:52;14.02;;;8.10;;
57822;SDS011;43650;48.064;20.624;2022-09-09T05:42:52;14.33;;;7.50;;
57822;SDS011;43650;48.064;20.624;2022-09-09T05:43:53;11.60;;;7.97;;
57822;SDS011;43650;48.064;20.624;2022-09-09T05:44:53;13.00;;;7.67;;
57822;SDS011;43650;48.064;20.624;2022-09-09T05:46:10;13.67;;;7.80;;
57822;SDS011;43650;48.064;20.624;2022-09-09T05:47:12;16.55;;;8.00;;
57822;SDS011;43650;48.064;20.624;2022-09-09T05:48:15;12.60;;;7.77;;
57822;SDS011;43650;48.064;20.624;2022-09-09T05:49:16;12.90;;;7.45;;
57822;SDS011;43650;48.064;20.624;2022-09-09T05:50:17;13.50;;;8.52;;
57822;SDS011;43650;48.064;20.624;2022-09-09T05:51:18;15.10;;;8.23;;
57822;SDS011;43650;48.064;20.624;2022-09-09T05:52:21;13.18;;;7.75;;
57822;SDS011;43650;48.064;20.624;2022-09-09T05:53:23;11.10;;;7.60;;
57822;SDS011;43650;48.064;20.624;2022-09-09T05:54:24;10.10;;;8.10;;
57822;SDS011;43650;48.064;20.624;2022-09-09T05:55:25;16.20;;;8.57;;
57822;SDS011;43650;48.064;20.624;2022-09-09T05:56:26;13.73;;;8.80;;
57822;SDS011;43650;48.064;20.624;2022-09-09T05:57:28;11.27;;;7.18;;
57822;SDS011;43650;48.064;20.624;2022-09-09T05:58:29;12.30;;;7.17;;
57822;SDS011;43650;48.064;20.624;2022-09-09T05:59:32;12.30;;;8.00;;
57822;SDS011;43650;48.064;20.624;2022-09-09T06:00:33;11.83;;;7.30;;
57822;SDS011;43650;48.064;20.624;2022-09-09T06:01:34;9.23;;;6.47;;
57822;SDS011;43650;48.064;20.624;2022-09-09T06:02:36;20.65;;;7.95;;
57822;SDS011;43650;48.064;20.624;2022-09-09T06:03:39;33.75;;;8.57;;
57822;SDS011;43650;48.064;20.624;2022-09-09T06:04:40;28.83;;;9.32;;
57822;SDS011;43650;48.064;20.624;2022-09-09T06:05:41;60.17;;;9.85;;
57822;SDS011;43650;48.064;20.624;2022-09-09T06:06:42;28.93;;;8.37;;
57822;SDS011;43650;48.064;20.624;2022-09-09T06:07:43;140.27;;;13.62;;
57822;SDS011;43650;48.064;20.624;2022-09-09T06:08:44;74.35;;;9.38;;
57822;SDS011;43650;48.064;20.624;2022-09-09T06:09:45;225.73;;;15.73;;
57822;SDS011;43650;48.064;20.624;2022-09-09T06:10:45;84.83;;;13.70;;
57822;SDS011;43650;48.064;20.624;2022-09-09T06:11:46;149.73;;;13.03;;
57822;SDS011;43650;48.064;20.624;2022-09-09T06:12:46;118.23;;;14.83;;
57822;SDS011;43650;48.064;20.624;2022-09-09T06:13:47;144.93;;;15.60;;
57822;SDS011;43650;48.064;20.624;2022-09-09T06:14:50;25.70;;;8.60;;
57822;SDS011;43650;48.064;20.624;2022-09-09T06:15:51;105.63;;;13.35;;
57822;SDS011;43650;48.064;20.624;2022-09-09T06:16:52;44.73;;;9.70;;
57822;SDS011;43650;48.064;20.624;2022-09-09T06:17:55;80.63;;;12.20;;
57822;SDS011;43650;48.064;20.624;2022-09-09T06:18:56;23.95;;;9.07;;
57822;SDS011;43650;48.064;20.624;2022-09-09T06:20:59;43.30;;;8.13;;
57822;SDS011;43650;48.064;20.624;2022-09-09T06:22:06;37.30;;;8.20;;
57822;SDS011;43650;48.064;20.624;2022-09-09T06:23:06;23.80;;;9.53;;
57822;SDS011;43650;48.064;20.624;2022-09-09T06:24:07;27.97;;;7.20;;
57822;SDS011;43650;48.064;20.624;2022-09-09T06:25:08;9.13;;;6.10;;
57822;SDS011;43650;48.064;20.624;2022-09-09T06:27:10;17.77;;;12.05;;
57822;SDS011;43650;48.064;20.624;2022-09-09T06:28:11;17.97;;;9.37;;
57822;SDS011;43650;48.064;20.624;2022-09-09T06:29:11;10.47;;;8.60;;
57822;SDS011;43650;48.064;20.624;2022-09-09T06:30:12;12.57;;;7.68;;
57822;SDS011;43650;48.064;20.624;2022-09-09T06:31:13;8.70;;;6.30;;
57822;SDS011;43650;48.064;20.624;2022-09-09T06:32:15;10.75;;;6.12;;
57822;SDS011;43650;48.064;20.624;2022-09-09T06:33:15;9.17;;;6.43;;
57822;SDS011;43650;48.064;20.624;2022-09-09T06:34:16;9.60;;;6.80;;
57822;SDS011;43650;48.064;20.624;2022-09-09T06:35:16;10.17;;;6.20;;
57822;SDS011;43650;48.064;20.624;2022-09-09T06:36:18;15.90;;;7.32;;
57822;SDS011;43650;48.064;20.624;2022-09-09T06:37:20;9.15;;;6.82;;
57822;SDS011;43650;48.064;20.624;2022-09-09T06:38:20;9.15;;;6.47;;
57822;SDS011;43650;48.064;20.624;2022-09-09T06:39:22;9.52;;;6.20;;
57822;SDS011;43650;48.064;20.624;2022-09-09T06:40:22;8.57;;;6.20;;
57822;SDS011;43650;48.064;20.624;2022-09-09T06:41:23;11.57;;;6.47;;
57822;SDS011;43650;48.064;20.624;2022-09-09T06:42:26;8.23;;;6.07;;
57822;SDS011;43650;48.064;20.624;2022-09-09T06:43:27;10.98;;;5.95;;
57822;SDS011;43650;48.064;20.624;2022-09-09T06:44:28;9.70;;;7.15;;
57822;SDS011;43650;48.064;20.624;2022-09-09T06:45:33;7.70;;;5.87;;
57822;SDS011;43650;48.064;20.624;2022-09-09T06:46:36;7.65;;;5.70;;
57822;SDS011;43650;48.064;20.624;2022-09-09T06:47:36;10.80;;;6.97;;
57822;SDS011;43650;48.064;20.624;2022-09-09T06:48:38;11.17;;;7.13;;
57822;SDS011;43650;48.064;20.624;2022-09-09T06:49:40;10.90;;;6.22;;
57822;SDS011;43650;48.064;20.624;2022-09-09T06:50:42;7.90;;;6.07;;
57822;SDS011;43650;48.064;20.624;2022-09-09T06:51:43;9.13;;;5.87;;
57822;SDS011;43650;48.064;20.624;2022-09-09T06:52:45;9.80;;;6.95;;
57822;SDS011;43650;48.064;20.624;2022-09-09T06:53:49;10.32;;;6.30;;
57822;SDS011;43650;48.064;20.624;2022-09-09T06:54:51;8.75;;;5.55;;
57822;SDS011;43650;48.064;20.624;2022-09-09T06:55:51;7.80;;;6.10;;
57822;SDS011;43650;48.064;20.624;2022-09-09T06:56:51;8.03;;;5.73;;